Time;durP1;ratioP1;P1;durP2;ratioP2;P2;SDS_P1;SDS_P2;PMS_P1;PMS_P2;Temp;Humidity;BMP_temperature;BMP_pressure;BME280_temperature;BME280_humidity;BME280_pressure;Samples;Min_cycle;Max_cycle;Signal;HPM_P1;HPM_P2
2023/04/24 00:00:42;;;;;;;5.77;1.13;;;7.60;1.00;8.20;93080.00;;;;7395493;19;20140;-74
2023/04/24 00:03:15;;;;;;;3.00;1.10;;;7.60;1.00;8.10;93038.00;;;;7393606;19;20173;-74
2023/04/24 00:05:43;;;;;;;4.10;1.07;;;7.60;1.00;8.10;93048.00;;;;7393921;19;20145;-74
2023/04/24 00:08:18;;;;;;;3.37;1.30;;;7.60;1.00;8.20;93067.00;;;;7396844;19;20149;-75
2023/04/24 00:10:52;;;;;;;2.47;0.80;;;7.50;1.00;8.20;93093.00;;;;7396401;19;20589;-75
2023/04/24 00:13:28;;;;;;;2.13;1.03;;;7.50;1.00;8.20;93099.00;;;;7395237;19;20152;-74
2023/04/24 00:15:56;;;;;;;1.40;1.10;;;7.50;1.00;8.10;93088.00;;;;7390493;19;20172;-74
2023/04/24 00:18:29;;;;;;;3.93;1.30;;;7.50;1.20;8.10;93102.00;;;;7396503;19;20568;-74
2023/04/24 00:20:57;;;;;;;1.67;1.53;;;7.50;26.70;8.00;93094.00;;;;7391536;19;20654;-75
2023/04/24 00:23:24;;;;;;;3.13;1.30;;;7.50;99.90;8.10;93080.00;;;;7395982;19;20128;-74
2023/04/24 00:25:57;;;;;;;2.30;1.20;;;7.40;99.90;8.20;93096.00;;;;7392321;19;20228;-75
2023/04/24 00:28:25;;;;;;;3.67;1.20;;;7.50;99.90;8.20;93090.00;;;;7399191;19;20625;-74
2023/04/24 00:30:59;;;;;;;1.67;1.10;;;7.40;99.90;8.10;93088.00;;;;7397725;19;20167;-75
2023/04/24 00:33:26;;;;;;;1.73;1.17;;;7.40;99.90;8.00;93066.00;;;;7391026;19;20170;-74
2023/04/24 00:35:53;;;;;;;1.50;1.30;;;7.40;99.90;8.20;93066.00;;;;7401768;19;20169;-74
2023/04/24 00:38:26;;;;;;;1.93;0.97;;;7.40;99.90;8.20;93085.00;;;;7400618;19;20186;-74
2023/04/24 00:41:01;;;;;;;1.63;1.20;;;7.40;99.90;8.20;93080.00;;;;7402564;19;20506;-75
2023/04/24 00:43:35;;;;;;;3.40;1.17;;;7.40;99.90;8.10;93077.00;;;;7401467;19;20138;-74
2023/04/24 00:46:05;;;;;;;0.93;0.90;;;7.40;99.90;8.10;93084.00;;;;7399616;19;20630;-74
2023/04/24 00:48:40;;;;;;;1.07;0.97;;;7.40;99.90;8.10;93086.00;;;;7401416;19;20148;-74
2023/04/24 00:51:08;;;;;;;1.83;1.13;;;7.40;99.90;8.00;93089.00;;;;7402953;19;20129;-75
2023/04/24 00:53:41;;;;;;;1.70;1.20;;;7.50;99.90;8.20;93092.00;;;;7402490;19;20124;-74
2023/04/24 00:56:09;;;;;;;3.43;1.23;;;7.50;99.90;8.20;93084.00;;;;7401139;19;20162;-75
2023/04/24 00:58:45;;;;;;;3.20;1.23;;;7.50;99.90;8.20;93077.00;;;;7400785;19;20132;-74
2023/04/24 01:01:20;;;;;;;2.50;1.07;;;7.50;99.90;8.20;93029.00;;;;7394213;19;20621;-78
2023/04/24 01:04:01;;;;;;;3.13;1.10;;;7.50;99.90;8.30;93085.00;;;;7403546;19;20129;-77
2023/04/24 01:06:30;;;;;;;2.30;1.47;;;7.50;99.90;8.20;93077.00;;;;7400424;19;20124;-77
2023/04/24 01:09:07;;;;;;;1.77;1.10;;;7.50;99.90;8.30;93069.00;;;;7401313;19;20217;-78
2023/04/24 01:11:34;;;;;;;1.97;1.00;;;7.50;99.90;8.20;93028.00;;;;7402843;19;20143;-76
2023/04/24 01:14:09;;;;;;;2.27;1.30;;;7.50;99.90;8.20;93034.00;;;;7401789;19;20152;-79
2023/04/24 01:16:38;;;;;;;3.07;1.30;;;7.50;99.90;8.10;93062.00;;;;7401241;19;20603;-78
2023/04/24 01:19:14;;;;;;;1.63;1.03;;;7.50;99.90;8.00;93077.00;;;;7400742;19;20630;-80
2023/04/24 01:21:43;;;;;;;1.10;1.00;;;7.50;99.90;8.10;93037.00;;;;7397408;19;20140;-77
2023/04/24 01:24:18;;;;;;;5.67;1.30;;;7.40;99.90;8.00;93049.00;;;;7400223;19;20144;-78
2023/04/24 01:26:53;;;;;;;1.90;0.83;;;7.40;99.90;8.20;93045.00;;;;7397517;19;20172;-78
2023/04/24 01:29:27;;;;;;;3.47;1.57;;;7.40;99.90;8.00;93054.00;;;;7400393;19;20132;-79
2023/04/24 01:32:01;;;;;;;1.50;1.20;;;7.40;99.90;8.00;93004.00;;;;7402057;19;20607;-79
2023/04/24 01:34:30;;;;;;;1.40;1.10;;;7.30;1.00;8.00;93009.00;;;;7400182;19;20600;-78
2023/04/24 01:37:04;;;;;;;1.47;1.03;;;7.40;1.00;8.00;93023.00;;;;7401518;19;20137;-76
2023/04/24 01:39:38;;;;;;;4.47;1.07;;;7.30;1.00;8.20;93021.00;;;;7397782;19;20148;-76
2023/04/24 01:42:06;;;;;;;1.20;1.10;;;7.40;1.00;8.10;93044.00;;;;7400220;19;20171;-77
2023/04/24 01:44:41;;;;;;;3.43;1.30;;;7.40;1.00;8.00;93024.00;;;;7399764;19;20166;-78
2023/04/24 01:47:09;;;;;;;2.70;1.07;;;7.30;1.00;8.00;93021.00;;;;7401565;19;20133;-78
2023/04/24 01:49:42;;;;;;;3.03;1.20;;;7.30;1.00;7.90;93002.00;;;;7399672;19;20125;-78
2023/04/24 01:52:10;;;;;;;2.23;1.10;;;7.20;1.00;7.80;93002.00;;;;7400459;19;20607;-75
2023/04/24 01:54:44;;;;;;;4.07;1.33;;;7.20;1.00;7.90;92982.00;;;;7400647;19;20556;-78
2023/04/24 01:57:11;;;;;;;3.37;1.20;;;7.20;84.60;7.90;93016.00;;;;7399612;19;20161;-76
2023/04/24 01:59:44;;;;;;;2.07;1.30;;;7.20;99.90;8.00;93007.00;;;;7400644;19;20142;-78
2023/04/24 02:02:27;;;;;;;2.43;1.10;;;7.20;99.90;8.10;92994.00;;;;7396943;19;20662;-78
2023/04/24 02:05:01;;;;;;;1.93;1.20;;;7.30;99.90;8.10;93010.00;;;;7400392;19;20592;-78
2023/04/24 02:07:34;;;;;;;5.60;1.40;;;7.30;99.90;7.90;93023.00;;;;7400613;19;20617;-78
2023/04/24 02:10:09;;;;;;;2.83;1.07;;;7.30;99.90;7.90;93007.00;;;;7400449;19;20128;-78
2023/04/24 02:12:43;;;;;;;3.90;1.03;;;7.30;99.90;8.00;93040.00;;;;7399963;19;20154;-78
2023/04/24 02:15:11;;;;;;;3.77;1.40;;;7.30;99.90;7.80;93032.00;;;;7398246;19;20125;-76
2023/04/24 02:17:44;;;;;;;1.43;1.30;;;7.30;1.00;7.70;93067.00;;;;7401096;19;20216;-78
2023/04/24 02:20:18;;;;;;;1.50;1.23;;;7.30;1.00;7.60;93066.00;;;;7395291;19;20500;-80
2023/04/24 02:22:53;;;;;;;3.17;1.33;;;7.20;1.00;7.50;93036.00;;;;7398771;19;20529;-78
2023/04/24 02:25:20;;;;;;;3.87;1.47;;;7.20;33.10;7.50;93058.00;;;;7397506;19;20144;-80
2023/04/24 02:27:53;;;;;;;3.03;1.53;;;7.10;99.90;7.40;93015.00;;;;7398389;19;20638;-81
2023/04/24 02:30:27;;;;;;;2.63;1.57;;;7.10;99.90;7.40;93055.00;;;;7398944;19;20550;-78
2023/04/24 02:33:01;;;;;;;1.50;1.40;;;7.00;99.90;7.40;93061.00;;;;7398383;19;20501;-79
2023/04/24 02:35:35;;;;;;;1.93;1.47;;;7.00;1.00;7.30;93028.00;;;;7398244;19;20156;-80
2023/04/24 02:38:08;;;;;;;1.63;1.37;;;6.90;1.00;7.10;93035.00;;;;7398281;19;20576;-81
2023/04/24 02:40:35;;;;;;;3.33;1.60;;;6.90;1.00;7.10;93057.00;;;;7397802;19;20623;-82
2023/04/24 02:43:09;;;;;;;6.57;1.40;;;6.80;1.00;7.10;93058.00;;;;7399178;19;20131;-81
2023/04/24 02:45:37;;;;;;;2.87;1.40;;;6.70;1.00;7.20;93056.00;;;;7398244;19;20617;-81
2023/04/24 02:48:11;;;;;;;2.27;1.20;;;6.70;1.00;7.00;93033.00;;;;7398889;19;20135;-80
2023/04/24 02:50:38;;;;;;;3.77;1.60;;;6.70;1.00;7.10;92992.00;;;;7397400;19;20181;-80
2023/04/24 02:53:11;;;;;;;4.73;1.70;;;6.70;1.00;7.00;93032.00;;;;7396440;19;20153;-80
2023/04/24 02:55:38;;;;;;;2.93;1.30;;;6.70;4.50;7.00;93062.00;;;;7397016;19;20145;-80
2023/04/24 02:58:12;;;;;;;2.47;1.50;;;6.70;36.40;7.10;93054.00;;;;7397902;19;20615;-80
2023/04/24 03:00:40;;;;;;;2.93;1.60;;;6.70;74.80;7.20;93054.00;;;;7397179;19;20220;-81
2023/04/24 03:03:20;;;;;;;4.07;1.33;;;6.70;99.70;7.10;93008.00;;;;7395460;19;20509;-81
2023/04/24 03:05:55;;;;;;;3.97;1.50;;;6.70;99.90;7.00;93032.00;;;;7395400;19;20178;-80
2023/04/24 03:08:24;;;;;;;2.53;1.57;;;6.60;99.90;6.90;93035.00;;;;7398999;19;20444;-79
2023/04/24 03:10:58;;;;;;;3.43;1.80;;;6.60;99.90;6.80;93007.00;;;;7397409;19;20136;-79
2023/04/24 03:13:31;;;;;;;7.47;1.53;;;6.50;99.90;6.80;93048.00;;;;7397012;19;20607;-79
2023/04/24 03:15:59;;;;;;;1.80;1.40;;;6.40;99.90;6.90;93041.00;;;;7396345;19;20162;-80
2023/04/24 03:18:32;;;;;;;1.93;1.33;;;6.40;99.90;6.70;93020.00;;;;7397057;19;20837;-79
2023/04/24 03:21:07;;;;;;;2.93;1.40;;;6.40;99.90;6.80;93038.00;;;;7393401;19;20139;-80
2023/04/24 03:23:40;;;;;;;3.27;1.80;;;6.30;99.90;6.90;92980.00;;;;7397069;19;20615;-80
2023/04/24 03:26:14;;;;;;;3.30;1.60;;;6.40;99.90;7.20;93023.00;;;;7396459;19;20136;-80
2023/04/24 03:28:48;;;;;;;2.83;1.53;;;6.40;99.90;7.00;93014.00;;;;7398518;19;20129;-80
2023/04/24 03:31:23;;;;;;;1.70;1.57;;;6.50;99.90;7.00;93040.00;;;;7397146;19;20595;-78
2023/04/24 03:33:57;;;;;;;2.63;1.63;;;6.50;99.90;7.00;93004.00;;;;7399054;19;20136;-79
2023/04/24 03:36:31;;;;;;;3.20;1.43;;;6.50;99.90;7.20;93014.00;;;;7395462;19;20129;-79
2023/04/24 03:38:58;;;;;;;3.10;1.70;;;6.60;99.90;7.20;93042.00;;;;7398098;19;20133;-80
2023/04/24 03:41:34;;;;;;;1.57;1.30;;;6.60;99.90;7.00;93014.00;;;;7397267;19;20163;-81
2023/04/24 03:44:07;;;;;;;2.10;1.70;;;6.60;99.90;6.80;93103.00;;;;7395889;19;20144;-79
2023/04/24 03:46:35;;;;;;;2.53;1.97;;;6.70;1.00;6.20;93098.00;;;;7393437;19;20616;-79
2023/04/24 03:49:08;;;;;;;4.03;1.87;;;6.40;99.90;5.80;93075.00;;;;7397174;19;20592;-79
2023/04/24 03:51:36;;;;;;;3.20;2.13;;;6.10;1.00;5.70;93076.00;;;;7395636;19;20140;-78
2023/04/24 03:54:10;;;;;;;8.67;2.53;;;5.80;1.00;5.60;93094.00;;;;7395103;19;20145;-78
2023/04/24 03:56:45;;;;;;;2.70;2.30;;;5.70;99.90;5.40;93090.00;;;;7396391;19;20149;-82
2023/04/24 03:59:18;;;;;;;3.17;2.10;;;5.50;99.90;5.40;93059.00;;;;7397306;19;20136;-79
2023/04/24 04:02:05;;;;;;;2.03;1.83;;;5.40;99.90;5.30;93095.00;;;;7392928;19;20655;-78
2023/04/24 04:04:40;;;;;;;3.70;2.23;;;5.30;99.90;5.20;93093.00;;;;7403203;19;20133;-77
2023/04/24 04:07:14;;;;;;;3.17;2.30;;;5.30;99.90;5.20;93100.00;;;;7400156;19;20133;-78
2023/04/24 04:09:41;;;;;;;4.83;2.03;;;5.20;1.00;5.30;93094.00;;;;7402517;19;20607;-78
2023/04/24 04:12:09;;;;;;;3.70;2.10;;;5.20;1.00;5.30;93092.00;;;;7403226;19;20129;-77
2023/04/24 04:14:43;;;;;;;3.47;2.17;;;5.20;1.00;5.30;93099.00;;;;7402046;19;20153;-79
2023/04/24 04:17:17;;;;;;;2.40;2.20;;;5.20;1.00;5.50;93092.00;;;;7395427;19;20182;-78
2023/04/24 04:19:50;;;;;;;2.13;1.93;;;5.20;1.00;5.40;93063.00;;;;7395161;19;20129;-80
2023/04/24 04:22:17;;;;;;;2.40;1.80;;;5.30;1.00;5.60;93095.00;;;;7402884;19;20157;-77
2023/04/24 04:24:52;;;;;;;2.20;1.80;;;5.30;1.00;5.60;93066.00;;;;7401994;19;20151;-77
2023/04/24 04:27:21;;;;;;;2.30;2.00;;;5.30;26.40;5.60;93102.00;;;;7401483;19;20133;-77
2023/04/24 04:29:56;;;;;;;2.60;2.07;;;5.30;76.10;5.70;93096.00;;;;7402140;19;20149;-78
2023/04/24 04:32:33;;;;;;;2.53;2.33;;;5.30;99.90;5.60;93096.00;;;;7403490;19;20136;-76
2023/04/24 04:35:02;;;;;;;3.27;2.40;;;5.40;99.90;5.70;93100.00;;;;7401640;19;20153;-78
2023/04/24 04:37:36;;;;;;;2.87;2.40;;;5.40;99.90;5.70;93086.00;;;;7401169;19;20511;-78
2023/04/24 04:40:14;;;;;;;3.73;3.40;;;5.40;99.90;5.80;93053.00;;;;7401603;19;20456;-75
2023/04/24 04:42:47;;;;;;;4.13;3.13;;;5.40;99.90;5.70;93104.00;;;;7403788;19;20153;-77
2023/04/24 04:45:16;;;;;;;3.57;2.90;;;5.40;85.30;5.70;93103.00;;;;7401552;19;20162;-76
2023/04/24 04:47:49;;;;;;;5.23;3.63;;;5.40;62.30;5.60;93064.00;;;;7395141;19;20140;-77
2023/04/24 04:50:19;;;;;;;5.07;3.67;;;5.40;63.70;5.60;93095.00;;;;7400685;19;20151;-75
2023/04/24 04:52:53;;;;;;;6.73;4.10;;;5.40;47.90;5.60;93105.00;;;;7403321;19;20472;-75
2023/04/24 04:55:21;;;;;;;8.93;3.50;;;5.40;37.80;5.80;93094.00;;;;7400582;19;20125;-75
2023/04/24 04:57:56;;;;;;;6.67;4.33;;;5.40;30.10;5.70;93094.00;;;;7401405;19;20494;-78
2023/04/24 05:00:25;;;;;;;6.27;4.43;;;5.40;23.20;5.70;93115.00;;;;7400872;19;20156;-77
2023/04/24 05:03:08;;;;;;;7.83;4.77;;;5.40;1.00;5.60;93090.00;;;;7398861;19;20171;-77
2023/04/24 05:05:47;;;;;;;6.90;4.37;;;5.40;1.00;5.70;93097.00;;;;7398615;19;20148;-77
2023/04/24 05:08:15;;;;;;;7.10;4.93;;;5.40;1.00;5.70;93106.00;;;;7401772;19;20215;-79
2023/04/24 05:10:55;;;;;;;6.67;4.37;;;5.40;1.00;5.70;93111.00;;;;7402321;19;20163;-78
2023/04/24 05:13:28;;;;;;;8.53;5.30;;;5.50;1.00;5.80;93113.00;;;;7400766;19;20152;-77
2023/04/24 05:16:08;;;;;;;4.90;4.27;;;5.50;1.00;5.80;93131.00;;;;7400282;19;20204;-77
2023/04/24 05:18:35;;;;;;;6.27;4.73;;;5.60;1.00;5.90;93132.00;;;;7402006;19;20158;-78
2023/04/24 05:21:08;;;;;;;6.83;4.50;;;5.60;1.00;5.80;93141.00;;;;7397284;19;20571;-78
2023/04/24 05:23:44;;;;;;;6.80;4.73;;;5.60;99.90;5.90;93147.00;;;;7402425;19;20141;-76
2023/04/24 05:26:18;;;;;;;6.23;3.87;;;5.60;99.90;6.00;93142.00;;;;7397106;19;20149;-77
2023/04/24 05:28:45;;;;;;;5.20;3.77;;;5.70;99.90;6.20;93125.00;;;;7396346;19;20511;-76
2023/04/24 05:31:20;;;;;;;4.40;3.70;;;5.70;99.90;6.20;93128.00;;;;7397227;19;20597;-78
2023/04/24 05:33:47;;;;;;;5.00;3.80;;;5.70;89.10;6.20;93092.00;;;;7398639;19;20133;-75
2023/04/24 05:36:20;;;;;;;4.13;3.67;;;5.80;62.30;6.40;93152.00;;;;7396934;19;20163;-77
2023/04/24 05:38:47;;;;;;;5.43;3.33;;;5.90;99.90;6.60;93152.00;;;;7399127;19;20137;-74
2023/04/24 05:41:22;;;;;;;6.07;3.80;;;6.00;78.90;6.60;93153.00;;;;7396729;19;20153;-76
2023/04/24 05:43:50;;;;;;;5.03;3.57;;;6.20;1.00;6.80;93143.00;;;;7383816;19;20167;-78
2023/04/24 05:46:18;;;;;;;9.43;3.63;;;6.40;1.00;7.30;93156.00;;;;7374330;19;20553;-74
2023/04/24 05:48:52;;;;;;;3.87;3.47;;;6.60;99.90;7.10;93134.00;;;;7383510;19;20128;-74
2023/04/24 05:51:39;;;;;;;4.13;3.10;;;6.80;99.90;7.60;93167.00;;;;7382983;19;20152;-75
2023/04/24 05:54:14;;;;;;;4.37;3.10;;;7.00;99.90;7.30;93181.00;;;;7383592;19;20456;-74
2023/04/24 05:56:42;;;;;;;4.47;3.40;;;7.10;1.00;7.40;93156.00;;;;7382376;19;20136;-77
2023/04/24 05:59:16;;;;;;;6.57;3.30;;;7.20;1.00;7.50;93160.00;;;;7383074;19;20447;-77
2023/04/24 06:01:50;;;;;;;3.57;2.63;;;7.40;1.00;8.20;93172.00;;;;7379064;19;20176;-74
2023/04/24 06:04:32;;;;;;;4.60;2.70;;;7.70;1.00;8.50;93141.00;;;;7380299;19;20679;-74
2023/04/24 06:07:10;;;;;;;3.53;2.60;;;8.00;99.90;8.30;93176.00;;;;7378982;19;20632;-75
2023/04/24 06:09:44;;;;;;;6.67;2.57;;;8.20;99.90;8.40;93143.00;;;;7380569;19;20608;-77
2023/04/24 06:12:11;;;;;;;2.27;2.00;;;8.30;1.00;8.60;93175.00;;;;7380021;19;20181;-75
2023/04/24 06:14:46;;;;;;;2.40;2.13;;;8.30;1.00;8.70;93177.00;;;;7379592;19;20288;-76
2023/04/24 06:17:20;;;;;;;4.87;2.50;;;8.40;99.90;8.70;93147.00;;;;7380097;19;20144;-74
2023/04/24 06:19:54;;;;;;;4.78;2.58;;;8.50;99.90;8.70;93175.00;;;;7377220;19;20801;-75
2023/04/24 06:22:28;;;;;;;2.53;2.33;;;8.50;71.50;8.40;93179.00;;;;7380752;19;20683;-75
2023/04/24 06:24:55;;;;;;;4.72;2.50;;;8.30;1.00;7.90;93152.00;;;;7381250;19;20171;-76
2023/04/24 06:27:29;;;;;;;2.93;2.53;;;8.10;99.90;7.80;93160.00;;;;7377867;19;20139;-76
2023/04/24 06:29:56;;;;;;;3.57;2.20;;;8.00;99.90;8.10;93182.00;;;;7379312;19;20547;-76
2023/04/24 06:32:31;;;;;;;2.87;2.40;;;7.90;99.90;8.20;93155.00;;;;7378640;19;20536;-75
2023/04/24 06:34:58;;;;;;;4.23;2.47;;;8.00;1.00;8.40;93164.00;;;;7379102;19;20197;-75
2023/04/24 06:37:40;;;;;;;2.73;2.33;;;8.00;1.00;8.20;93195.00;;;;7379629;19;20849;-75
2023/04/24 06:40:14;;;;;;;2.57;2.30;;;8.10;1.00;8.80;93197.00;;;;7381247;19;20579;-75
2023/04/24 06:42:42;;;;;;;2.77;2.37;;;7.90;1.00;8.30;93199.00;;;;7379151;19;20192;-76
2023/04/24 06:45:16;;;;;;;3.00;2.37;;;8.10;1.00;8.80;93188.00;;;;7379919;19;20146;-74
2023/04/24 06:47:50;;;;;;;3.47;2.50;;;7.90;1.00;8.50;93218.00;;;;7378491;19;20256;-75
2023/04/24 06:50:24;;;;;;;3.60;2.30;;;7.90;99.90;8.00;93214.00;;;;7377416;19;20224;-78
2023/04/24 06:52:57;;;;;;;2.23;1.80;;;7.70;99.90;7.90;93206.00;;;;7379944;19;20857;-76
2023/04/24 06:55:32;;;;;;;2.03;1.83;;;7.70;99.90;8.20;93210.00;;;;7378716;19;20462;-77
2023/04/24 06:58:00;;;;;;;2.30;1.80;;;7.70;99.90;8.80;93193.00;;;;7378602;19;20465;-77
2023/04/24 07:00:33;;;;;;;3.77;1.93;;;7.80;99.90;9.00;93159.00;;;;7378214;19;20148;-75
2023/04/24 07:03:16;;;;;;;3.17;2.37;;;;;8.50;93206.00;;;;7376388;19;20168;-75
2023/04/24 07:05:53;;;;;;;2.77;2.20;;;7.80;1.00;8.40;93205.00;;;;7378889;19;20139;-74
2023/04/24 07:08:26;;;;;;;3.67;2.00;;;7.60;1.00;8.20;93186.00;;;;7377007;19;20124;-76
2023/04/24 07:11:01;;;;;;;2.37;1.77;;;7.60;1.00;8.70;93215.00;;;;7377895;19;20243;-77
2023/04/24 07:13:28;;;;;;;3.80;1.80;;;7.60;1.00;8.90;93200.00;;;;7377366;19;20469;-76
2023/04/24 07:16:02;;;;;;;2.83;1.73;;;7.70;1.00;8.90;93218.00;;;;7376715;19;20173;-76
2023/04/24 07:18:30;;;;;;;4.37;1.80;;;7.80;1.00;9.00;93183.00;;;;7378993;19;20211;-77
2023/04/24 07:21:04;;;;;;;2.70;1.93;;;7.80;1.00;8.90;93207.00;;;;7377236;19;20154;-76
2023/04/24 07:23:33;;;;;;;3.13;1.80;;;7.90;1.00;8.60;93202.00;;;;7377504;19;20747;-74
2023/04/24 07:26:07;;;;;;;3.17;1.73;;;8.10;1.00;8.70;93188.00;;;;7376848;19;20814;-77
2023/04/24 07:28:34;;;;;;;2.13;1.73;;;8.00;99.90;8.50;93216.00;;;;7374593;19;20538;-74
2023/04/24 07:31:08;;;;;;;2.30;1.80;;;7.80;99.90;8.20;93202.00;;;;7377862;19;20148;-75
2023/04/24 07:33:36;;;;;;;1.93;1.70;;;7.70;1.00;8.20;93230.00;;;;7379558;19;20139;-76
2023/04/24 07:36:15;;;;;;;3.77;2.00;;;7.70;99.90;8.00;93218.00;;;;7377991;19;20124;-77
2023/04/24 07:38:50;;;;;;;3.90;1.83;;;7.50;99.90;7.80;93238.00;;;;7380770;19;20143;-76
2023/04/24 07:41:25;;;;;;;5.40;2.03;;;7.40;99.90;8.00;93216.00;;;;7382529;19;20148;-77
2023/04/24 07:43:53;;;;;;;3.63;1.90;;;7.40;1.00;8.00;93178.00;;;;7385674;19;20128;-76
2023/04/24 07:46:29;;;;;;;2.60;1.63;;;7.40;99.90;8.40;93247.00;;;;7381146;19;20152;-75
2023/04/24 07:48:58;;;;;;;4.40;2.03;;;7.50;99.90;8.30;93263.00;;;;7382802;19;20129;-75
2023/04/24 07:51:41;;;;;;;2.30;2.00;;;7.30;99.90;7.90;93236.00;;;;7384805;19;20132;-77
2023/04/24 07:54:16;;;;;;;4.10;2.00;;;7.20;1.40;8.40;93251.00;;;;7387583;19;20132;-76
2023/04/24 07:56:50;;;;;;;3.63;1.83;;;7.30;1.00;8.30;93264.00;;;;7388087;19;20166;-76
2023/04/24 07:59:24;;;;;;;3.50;2.07;;;7.50;1.00;7.90;93264.00;;;;7388207;19;20137;-75
2023/04/24 08:02:06;;;;;;;2.30;1.90;;;7.50;99.90;8.10;93268.00;;;;7386324;19;20172;-75
2023/04/24 08:04:35;;;;;;;2.30;1.90;;;7.40;1.00;7.90;93278.00;;;;7384938;19;20125;-76
2023/04/24 08:07:09;;;;;;;2.43;1.90;;;7.40;1.00;7.30;93280.00;;;;7384847;19;20281;-76
2023/04/24 08:09:37;;;;;;;2.60;2.07;;;7.10;1.00;6.60;93285.00;;;;7385332;19;20148;-76
2023/04/24 08:12:11;;;;;;;2.83;2.30;;;6.60;54.10;6.10;93306.00;;;;7387127;19;20183;-75
2023/04/24 08:14:45;;;;;;;4.53;2.50;;;6.30;99.90;5.90;93276.00;;;;7384934;19;20700;-75
2023/04/24 08:17:19;;;;;;;3.13;2.60;;;5.90;1.00;5.60;93302.00;;;;7385105;19;20157;-77
2023/04/24 08:20:01;;;;;;;3.20;2.20;;;5.70;1.00;5.60;93290.00;;;;7380110;19;20125;-79
2023/04/24 08:22:29;;;;;;;7.27;2.90;;;5.60;99.90;5.60;93305.00;;;;7385960;19;20663;-76
2023/04/24 08:25:06;;;;;;;4.33;2.70;;;5.60;99.90;5.70;93324.00;;;;7387531;19;20754;-74
2023/04/24 08:27:33;;;;;;;4.63;2.70;;;5.60;1.00;6.00;93285.00;;;;7385808;19;20676;-81
2023/04/24 08:30:09;;;;;;;5.53;3.23;;;5.60;99.90;6.00;93271.00;;;;7385751;19;20160;-80
2023/04/24 08:32:44;;;;;;;4.07;3.37;;;5.60;1.00;6.40;93325.00;;;;7385957;19;20166;-77
2023/04/24 08:35:18;;;;;;;7.60;3.00;;;5.80;86.90;6.80;93300.00;;;;7384046;19;20133;-76
2023/04/24 08:37:46;;;;;;;3.97;2.70;;;6.00;1.00;6.50;93337.00;;;;7385086;19;20168;-75
2023/04/24 08:40:30;;;;;;;6.10;2.90;;;6.10;1.00;6.20;93354.00;;;;7385727;19;20531;-77
2023/04/24 08:43:00;;;;;;;4.60;2.67;;;6.00;1.00;5.90;93337.00;;;;7386775;19;20121;-79
2023/04/24 08:45:34;;;;;;;2.47;2.27;;;5.80;99.90;5.90;93341.00;;;;7383693;19;20575;-76
2023/04/24 08:48:04;;;;;;;5.47;2.70;;;5.80;99.90;5.90;93349.00;;;;7385721;19;20146;-80
2023/04/24 08:50:38;;;;;;;5.77;2.60;;;5.70;99.90;6.10;93341.00;;;;7383382;19;20132;-81
2023/04/24 08:53:14;;;;;;;4.10;2.50;;;5.80;99.90;6.20;93360.00;;;;7384088;19;20137;-78
2023/04/24 08:55:54;;;;;;;4.23;3.10;;;6.00;1.00;6.30;93333.00;;;;7384099;19;20133;-77
2023/04/24 08:58:25;;;;;;;3.47;2.60;;;6.00;99.90;6.40;93278.00;;;;7384590;19;20478;-78
2023/04/24 09:00:59;;;;;;;3.10;2.80;;;6.00;1.00;6.70;93269.00;;;;7384755;19;20172;-77
2023/04/24 09:03:34;;;;;;;4.03;2.47;;;6.10;99.90;6.70;93325.00;;;;7383960;19;20224;-77
2023/04/24 09:06:11;;;;;;;2.97;2.50;;;6.20;99.90;6.60;93336.00;;;;7386151;19;20137;-79
2023/04/24 09:08:45;;;;;;;4.70;3.00;;;6.30;1.00;6.70;93341.00;;;;7385354;19;20148;-77
2023/04/24 09:11:21;;;;;;;4.60;2.60;;;6.40;99.90;6.70;93364.00;;;;7384196;19;20152;-77
2023/04/24 09:13:49;;;;;;;5.27;2.40;;;6.30;1.00;6.60;93360.00;;;;7386151;19;20133;-77
2023/04/24 09:16:25;;;;;;;5.10;2.50;;;6.30;1.00;6.20;93330.00;;;;7386294;19;20593;-75
2023/04/24 09:18:54;;;;;;;3.40;2.40;;;6.10;1.00;6.00;93374.00;;;;7384088;19;20144;-75
2023/04/24 09:21:33;;;;;;;4.23;2.07;;;6.00;1.00;5.90;93380.00;;;;7380794;19;20159;-77
2023/04/24 09:24:17;;;;;;;2.33;2.07;;;5.90;1.00;6.40;93369.00;;;;7383772;19;20165;-75
2023/04/24 09:27:01;;;;;;;4.03;2.30;;;6.00;1.00;6.00;93384.00;;;;7383735;19;20131;-75
2023/04/24 09:29:28;;;;;;;5.63;2.13;;;6.10;1.00;6.20;93369.00;;;;7386011;19;20125;-74
2023/04/24 09:32:21;;;;;;;3.60;2.03;;;5.90;1.00;6.00;93344.00;;;;7384711;19;20581;-77
2023/04/24 09:34:50;;;;;;;3.80;2.40;;;5.80;1.00;7.30;93290.00;;;;7384310;19;20589;-76
2023/04/24 09:37:30;;;;;;;2.60;2.00;;;6.20;99.90;8.10;93346.00;;;;7385350;19;20153;-76
2023/04/24 09:40:18;;;;;;;3.37;2.10;;;6.80;12.80;8.60;93349.00;;;;7386416;19;20149;-75
2023/04/24 09:42:58;;;;;;;2.13;1.93;;;7.20;99.90;8.70;93236.00;;;;7385932;19;20129;-78
2023/04/24 09:45:39;;;;;;;2.57;2.00;;;7.50;99.90;8.70;93328.00;;;;7385894;19;20124;-74
2023/04/24 09:48:14;;;;;;;1.93;1.73;;;7.80;1.00;8.90;93314.00;;;;7383764;19;20133;-75
2023/04/24 09:50:47;;;;;;;4.13;1.80;;;8.40;99.90;9.80;93316.00;;;;7385616;19;20580;-76
2023/04/24 09:53:25;;;;;;;2.40;1.70;;;8.80;99.90;9.30;93366.00;;;;7385186;19;20622;-76
2023/04/24 09:56:10;;;;;;;2.93;1.63;;;9.00;99.90;10.20;93374.00;;;;7385625;19;20125;-77
2023/04/24 09:58:46;;;;;;;2.97;1.77;;;9.10;99.90;8.90;93335.00;;;;7383799;19;20136;-76
2023/04/24 10:01:14;;;;;;;2.83;1.40;;;8.90;69.30;8.10;93380.00;;;;7383036;19;20152;-77
2023/04/24 10:03:55;;;;;;;1.93;1.50;;;8.60;99.90;8.10;93385.00;;;;7385052;19;20550;-78
2023/04/24 10:06:37;;;;;;;1.67;1.57;;;8.10;99.90;8.10;93380.00;;;;7385229;19;20649;-76
2023/04/24 10:09:12;;;;;;;3.80;1.73;;;7.90;99.90;7.90;93333.00;;;;7385415;19;20170;-79
2023/04/24 10:11:50;;;;;;;1.70;1.43;;;7.40;99.90;8.60;93381.00;;;;7382180;19;20152;-77
2023/04/24 10:14:25;;;;;;;2.90;1.73;;;7.80;99.90;8.60;93388.00;;;;7384940;19;20471;-78
2023/04/24 10:16:59;;;;;;;2.17;1.83;;;7.90;99.90;8.70;93345.00;;;;7382267;19;20129;-77
2023/04/24 10:19:35;;;;;;;2.97;1.20;;;8.10;99.90;8.60;93345.00;;;;7385129;19;20137;-75
2023/04/24 10:22:10;;;;;;;1.40;1.30;;;8.10;99.90;8.70;93387.00;;;;7379832;19;20155;-77
2023/04/24 10:24:47;;;;;;;1.67;1.37;;;8.20;99.90;7.90;93317.00;;;;7383232;19;20157;-76
2023/04/24 10:27:26;;;;;;;2.70;1.30;;;7.80;99.90;7.70;93413.00;;;;7382683;19;20145;-77
2023/04/24 10:29:57;;;;;;;2.30;1.20;;;7.50;99.90;7.30;93427.00;;;;7385275;19;20135;-76
2023/04/24 10:32:31;;;;;;;1.73;1.40;;;7.30;99.90;7.10;93358.00;;;;7384370;19;20128;-78
2023/04/24 10:35:11;;;;;;;3.67;1.63;;;7.10;99.90;6.80;93435.00;;;;7382513;19;20152;-79
2023/04/24 10:38:01;;;;;;;1.73;1.63;;;7.00;99.90;6.90;93357.00;;;;7384877;19;20131;-77
2023/04/24 10:40:37;;;;;;;3.03;1.70;;;6.70;99.90;6.90;93430.00;;;;7384067;19;20140;-78
2023/04/24 10:43:09;;;;;;;4.00;1.67;;;6.80;99.90;7.60;93416.00;;;;7382159;19;20476;-79
2023/04/24 10:46:02;;;;;;;3.70;1.50;;;6.90;99.90;8.10;93401.00;;;;7382017;19;20132;-76
2023/04/24 10:48:32;;;;;;;5.13;1.90;;;7.40;99.90;9.60;93402.00;;;;7383378;19;20633;-75
2023/04/24 10:51:13;;;;;;;4.20;1.93;;;8.00;99.90;10.90;93381.00;;;;7377817;19;20151;-75
2023/04/24 10:53:41;;;;;;;3.70;1.60;;;8.70;93.70;11.30;93367.00;;;;7380021;19;20620;-75
2023/04/24 10:56:18;;;;;;;3.13;1.45;;;9.20;99.90;10.30;93421.00;;;;7379154;19;20128;-75
2023/04/24 10:58:52;;;;;;;1.75;1.40;;;9.50;1.00;9.60;93438.00;;;;7380049;19;20193;-75
2023/04/24 11:01:30;;;;;;;2.40;1.67;;;9.20;4.70;8.50;93437.00;;;;7378301;19;20815;-76
2023/04/24 11:04:10;;;;;;;2.90;1.43;;;8.70;23.90;7.90;93390.00;;;;7377611;19;21644;-75
2023/04/24 11:06:44;;;;;;;2.70;2.00;;;8.30;56.10;7.80;93449.00;;;;7379544;19;20128;-76
2023/04/24 11:09:16;;;;;;;2.00;1.70;;;7.60;99.90;7.20;93444.00;;;;7377429;19;20139;-75
2023/04/24 11:12:03;;;;;;;1.83;1.57;;;7.20;99.90;7.60;93384.00;;;;7377713;19;20137;-75
2023/04/24 11:15:01;;;;;;;2.20;1.50;;;7.20;99.90;8.70;93417.00;;;;7379190;19;20590;-78
2023/04/24 11:17:39;;;;;;;2.80;1.53;;;7.40;1.00;10.40;93392.00;;;;7377584;19;20153;-76
2023/04/24 11:20:16;;;;;;;3.93;2.03;;;8.10;99.90;11.10;93348.00;;;;7375147;19;20186;-76
2023/04/24 11:22:54;;;;;;;2.05;1.90;;;9.00;99.90;11.80;93376.00;;;;7377735;19;20595;-75
2023/04/24 11:25:22;;;;;;;2.63;1.80;;;10.10;3.70;13.90;93361.00;;;;7378119;19;20164;-76
2023/04/24 11:28:06;;;;;;;3.38;1.55;;;11.30;7.30;14.20;93396.00;;;;7378893;19;20623;-76
2023/04/24 11:30:40;;;;;;;2.58;1.83;;;12.40;1.00;11.70;93421.00;;;;7377741;19;20132;-76
2023/04/24 11:33:08;;;;;;;3.30;1.90;;;12.00;1.00;10.00;93353.00;;;;7380215;19;20228;-76
2023/04/24 11:35:43;;;;;;;2.80;1.80;;;10.60;1.00;10.40;93442.00;;;;7379084;19;20503;-74
2023/04/24 11:38:18;;;;;;;2.60;1.65;;;10.10;1.00;10.00;93440.00;;;;7378064;19;20171;-76
2023/04/24 11:40:54;;;;;;;2.97;1.60;;;9.70;1.00;9.50;93400.00;;;;7380163;19;20125;-77